createdAt,value
2019-02-28T00:00:57.540Z,24.23
2019-02-28T00:03:26.252Z,23.20
2019-02-28T00:05:54.785Z,27.90
2019-02-28T00:08:22.430Z,25.27
2019-02-28T00:10:50.205Z,27.03
2019-02-28T00:13:21.474Z,26.90
2019-02-28T00:15:47.505Z,26.03
2019-02-28T00:18:16.459Z,25.03
2019-02-28T00:20:44.355Z,26.37
2019-02-28T00:23:12.044Z,27.07
2019-02-28T00:25:39.785Z,27.23
2019-02-28T00:28:07.485Z,25.27
2019-02-28T00:30:37.447Z,25.23
2019-02-28T00:33:04.629Z,28.20
2019-02-28T00:35:32.322Z,23.63
2019-02-28T00:37:59.973Z,23.40
2019-02-28T00:40:29.441Z,25.77
2019-02-28T00:42:57.146Z,23.43
2019-02-28T00:45:24.961Z,27.33
2019-02-28T00:47:52.650Z,21.17
2019-02-28T00:50:20.364Z,21.50
2019-02-28T00:52:48.058Z,24.37
2019-02-28T00:55:15.869Z,26.90
2019-02-28T00:57:43.549Z,22.47
2019-02-28T01:00:11.921Z,23.90
2019-02-28T01:02:39.567Z,27.33
2019-02-28T01:05:07.273Z,24.83
2019-02-28T01:07:34.939Z,26.50
2019-02-28T01:10:04.529Z,24.27
2019-02-28T01:12:32.476Z,26.57
2019-02-28T01:15:00.326Z,26.67
2019-02-28T01:17:27.949Z,24.73
2019-02-28T01:19:55.680Z,25.53
2019-02-28T01:22:26.826Z,29.67
2019-02-28T01:24:54.636Z,28.03
2019-02-28T01:27:22.351Z,30.13
2019-02-28T01:29:50.071Z,27.90
2019-02-28T01:32:17.749Z,30.00
2019-02-28T01:34:45.397Z,29.97
2019-02-28T01:37:13.134Z,23.43
2019-02-28T01:39:40.792Z,28.27
2019-02-28T01:42:08.495Z,29.07
2019-02-28T01:44:36.517Z,30.43
2019-02-28T01:47:04.252Z,30.27
2019-02-28T01:49:31.890Z,29.30
2019-02-28T01:51:59.652Z,32.63
2019-02-28T01:54:27.780Z,31.90
2019-02-28T01:56:56.286Z,32.23
2019-02-28T01:59:24.054Z,36.57
2019-02-28T02:01:51.763Z,34.03
2019-02-28T02:04:19.435Z,36.17
2019-02-28T02:06:47.501Z,31.67
2019-02-28T02:09:15.228Z,35.10
2019-02-28T02:11:42.962Z,35.53
2019-02-28T02:14:11.044Z,37.97
2019-02-28T02:16:39.642Z,30.60
2019-02-28T02:19:07.363Z,33.60
2019-02-28T02:21:35.648Z,31.07
2019-02-28T02:24:03.499Z,32.57
2019-02-28T02:26:31.218Z,34.53
2019-02-28T02:29:01.192Z,35.00
2019-02-28T02:31:29.205Z,33.13
2019-02-28T02:33:57.057Z,38.33
2019-02-28T02:36:24.766Z,35.37
2019-02-28T02:38:52.515Z,35.33
2019-02-28T02:41:20.160Z,32.83
2019-02-28T02:43:47.829Z,35.43
2019-02-28T02:46:20.222Z,36.90
2019-02-28T02:48:44.943Z,39.30
2019-02-28T02:51:12.809Z,32.87
2019-02-28T02:53:41.906Z,35.43
2019-02-28T02:56:10.239Z,38.13
2019-02-28T02:58:37.926Z,37.33
2019-02-28T03:01:05.671Z,39.83
2019-02-28T03:03:33.349Z,38.70
2019-02-28T03:06:01.067Z,42.00
2019-02-28T03:08:35.670Z,37.97
2019-02-28T03:10:58.416Z,41.63
2019-02-28T03:13:26.158Z,38.97
2019-02-28T03:15:53.829Z,37.10
2019-02-28T03:18:21.854Z,36.60
2019-02-28T03:20:49.646Z,37.27
2019-02-28T03:23:17.349Z,38.47
2019-02-28T03:25:45.092Z,42.50
2019-02-28T03:28:14.031Z,39.20
2019-02-28T03:30:41.980Z,44.87
2019-02-28T03:33:23.801Z,41.10
2019-02-28T03:35:43.414Z,41.37
2019-02-28T03:38:11.603Z,34.47
2019-02-28T03:40:40.250Z,41.20
2019-02-28T03:43:07.772Z,44.47
2019-02-28T03:45:35.532Z,41.43
2019-02-28T03:48:03.197Z,40.93
2019-02-28T03:50:30.941Z,44.87
2019-02-28T03:52:58.620Z,43.10
2019-02-28T03:55:26.340Z,46.93
2019-02-28T03:57:54.050Z,40.83
2019-02-28T04:00:21.816Z,40.97
2019-02-28T04:02:57.028Z,42.23
2019-02-28T04:05:26.687Z,45.53
2019-02-28T04:07:52.759Z,41.00
2019-02-28T04:10:22.044Z,46.73
2019-02-28T04:12:47.760Z,45.50
2019-02-28T04:15:15.731Z,48.10
2019-02-28T04:17:43.394Z,48.13
2019-02-28T04:20:11.147Z,49.53
2019-02-28T04:22:38.875Z,48.47
2019-02-28T04:25:06.658Z,47.13
2019-02-28T04:27:34.386Z,46.73
2019-02-28T04:30:06.612Z,52.87
2019-02-28T04:32:31.809Z,48.23
2019-02-28T04:34:59.491Z,43.20
2019-02-28T04:37:27.156Z,48.90
2019-02-28T04:39:54.884Z,46.80
2019-02-28T04:42:22.558Z,52.63
2019-02-28T04:44:51.937Z,53.10
2019-02-28T04:47:19.824Z,50.07
2019-02-28T04:49:47.471Z,49.57
2019-02-28T04:52:15.145Z,55.00
2019-02-28T04:54:42.813Z,51.10
2019-02-28T04:57:10.522Z,56.07
2019-02-28T04:59:38.206Z,56.53
2019-02-28T05:02:05.972Z,55.40
2019-02-28T05:04:36.155Z,58.10
2019-02-28T05:07:03.264Z,52.90
2019-02-28T05:09:30.925Z,62.67
2019-02-28T05:11:58.597Z,57.30
2019-02-28T05:14:26.382Z,53.70
2019-02-28T05:16:54.166Z,59.67
2019-02-28T05:19:21.920Z,58.20
2019-02-28T05:21:50.658Z,60.37
2019-02-28T05:24:19.163Z,61.93
2019-02-28T05:26:46.902Z,58.63
2019-02-28T05:29:14.946Z,61.53
2019-02-28T05:31:42.663Z,57.57
2019-02-28T05:34:13.235Z,60.60
2019-02-28T05:36:39.943Z,52.97
2019-02-28T05:39:07.731Z,63.20
2019-02-28T05:41:36.268Z,60.50
2019-02-28T05:44:06.306Z,65.87
2019-02-28T05:46:33.948Z,72.27
2019-02-28T05:49:01.877Z,74.67
2019-02-28T05:51:29.580Z,67.13
2019-02-28T05:53:57.680Z,73.97
2019-02-28T05:56:25.728Z,70.30
2019-02-28T05:58:53.448Z,67.37
2019-02-28T06:01:21.159Z,68.97
2019-02-28T06:03:48.874Z,69.67
2019-02-28T06:06:17.213Z,72.63
2019-02-28T06:08:46.215Z,72.27
2019-02-28T06:11:15.350Z,72.10
2019-02-28T06:13:43.429Z,76.37
2019-02-28T06:16:12.296Z,74.10
2019-02-28T06:18:40.316Z,71.13
2019-02-28T06:21:10.444Z,74.77
2019-02-28T06:23:40.813Z,72.13
2019-02-28T06:26:08.009Z,71.90
2019-02-28T06:28:35.783Z,76.50
2019-02-28T06:31:03.507Z,74.97
2019-02-28T06:33:33.741Z,71.00
2019-02-28T06:36:00.701Z,76.63
2019-02-28T06:38:28.434Z,80.30
2019-02-28T06:40:56.266Z,89.23
2019-02-28T06:43:24.009Z,92.83
2019-02-28T06:45:51.792Z,88.47
2019-02-28T06:48:20.409Z,83.57
2019-02-28T06:50:49.162Z,83.60
2019-02-28T06:53:16.974Z,87.50
2019-02-28T06:55:47.928Z,83.73
2019-02-28T06:58:16.755Z,81.60
2019-02-28T07:00:47.413Z,82.30
2019-02-28T07:03:14.082Z,81.57
2019-02-28T07:05:41.823Z,85.83
2019-02-28T07:08:09.679Z,81.40
2019-02-28T07:10:37.484Z,76.67
2019-02-28T07:13:05.659Z,81.33
2019-02-28T07:15:33.561Z,83.73
2019-02-28T07:18:01.377Z,88.20
2019-02-28T07:20:29.080Z,81.77
2019-02-28T07:22:56.825Z,81.83
2019-02-28T07:25:24.548Z,79.97
2019-02-28T07:27:52.277Z,78.30
2019-02-28T07:30:20.080Z,73.47
2019-02-28T07:32:47.889Z,81.70
2019-02-28T07:35:15.643Z,79.10
2019-02-28T07:37:43.375Z,81.03
2019-02-28T07:40:15.581Z,75.80
2019-02-28T07:42:41.190Z,80.70
2019-02-28T07:45:12.093Z,87.47
2019-02-28T07:47:39.868Z,77.40
2019-02-28T07:50:10.780Z,81.47
2019-02-28T07:52:37.404Z,76.67
2019-02-28T07:55:06.126Z,78.10
2019-02-28T07:57:33.864Z,74.53
2019-02-28T08:00:01.618Z,80.83
2019-02-28T08:02:29.404Z,65.97
2019-02-28T08:04:58.010Z,71.37
2019-02-28T08:07:25.729Z,69.23
2019-02-28T08:09:53.439Z,66.23
2019-02-28T08:12:21.222Z,71.73
2019-02-28T08:14:48.953Z,67.43
2019-02-28T08:17:16.637Z,68.63
2019-02-28T08:19:44.440Z,64.47
2019-02-28T08:22:12.272Z,67.10
2019-02-28T08:24:39.983Z,68.40
2019-02-28T08:27:07.797Z,63.67
2019-02-28T08:29:35.503Z,64.97
2019-02-28T08:32:06.725Z,69.70
2019-02-28T08:34:33.076Z,70.23
2019-02-28T08:37:00.858Z,62.67
2019-02-28T08:39:28.582Z,64.67
2019-02-28T08:42:02.803Z,62.43
2019-02-28T08:44:25.832Z,63.67
2019-02-28T08:46:53.650Z,71.17
2019-02-28T08:49:21.446Z,69.07
2019-02-28T08:51:49.243Z,65.20
2019-02-28T08:54:16.981Z,60.87
2019-02-28T08:56:49.118Z,67.17
2019-02-28T08:59:18.172Z,68.53
2019-02-28T09:01:44.287Z,62.30
2019-02-28T09:04:12.165Z,65.20
2019-02-28T09:06:40.896Z,66.10
2019-02-28T09:09:10.928Z,61.20
2019-02-28T09:11:38.697Z,58.13
2019-02-28T09:14:06.441Z,64.47
2019-02-28T09:16:36.732Z,67.80
2019-02-28T09:19:04.206Z,61.10
2019-02-28T09:21:31.930Z,65.23
2019-02-28T09:23:59.727Z,61.10
2019-02-28T09:26:28.287Z,59.37
2019-02-28T09:28:57.075Z,57.90
2019-02-28T09:31:27.028Z,58.37
2019-02-28T09:33:55.371Z,58.00
2019-02-28T09:36:24.339Z,62.87
2019-02-28T09:38:57.086Z,59.17
2019-02-28T09:41:21.901Z,60.50
2019-02-28T09:43:49.731Z,57.80
2019-02-28T09:46:18.728Z,54.27
2019-02-28T09:48:46.620Z,58.00
2019-02-28T09:51:14.336Z,53.80
2019-02-28T09:53:42.076Z,54.73
2019-02-28T09:56:10.151Z,54.23
2019-02-28T09:58:38.108Z,55.23
2019-02-28T10:01:05.862Z,54.97
2019-02-28T10:03:34.671Z,56.90
2019-02-28T10:06:02.460Z,54.37
2019-02-28T10:08:30.291Z,55.20
2019-02-28T10:10:58.006Z,50.50
2019-02-28T10:13:27.258Z,56.13
2019-02-28T10:15:55.015Z,49.30
2019-02-28T10:18:24.834Z,46.53
2019-02-28T10:20:52.632Z,44.63
2019-02-28T10:23:21.439Z,46.47
2019-02-28T10:25:49.841Z,42.33
2019-02-28T10:28:17.560Z,46.50
2019-02-28T10:30:47.267Z,49.17
2019-02-28T10:33:17.393Z,44.60
2019-02-28T10:35:44.418Z,49.73
2019-02-28T10:38:12.176Z,46.00
2019-02-28T10:40:39.862Z,44.63
2019-02-28T10:43:07.625Z,43.73
2019-02-28T10:45:40.841Z,48.50
2019-02-28T10:48:04.873Z,47.10
2019-02-28T10:50:33.607Z,46.77
2019-02-28T10:53:05.447Z,44.60
2019-02-28T10:55:31.153Z,44.30
2019-02-28T10:57:58.935Z,43.30
2019-02-28T11:00:32.846Z,46.77
2019-02-28T11:03:00.126Z,48.13
2019-02-28T11:05:33.531Z,44.67
2019-02-28T11:08:02.493Z,49.87
2019-02-28T11:10:37.650Z,47.70
2019-02-28T11:13:08.849Z,46.30
2019-02-28T11:15:36.529Z,45.17
2019-02-28T11:18:08.624Z,49.43
2019-02-28T11:20:35.062Z,46.27
2019-02-28T11:23:03.483Z,52.10
2019-02-28T11:25:34.652Z,47.07
2019-02-28T11:28:00.923Z,53.17
2019-02-28T11:30:28.883Z,49.03
2019-02-28T11:32:57.037Z,49.90
2019-02-28T11:35:24.836Z,48.73
2019-02-28T11:37:52.498Z,50.70
2019-02-28T11:40:21.434Z,49.17
2019-02-28T11:42:49.082Z,52.20
2019-02-28T11:45:21.582Z,52.63
2019-02-28T11:47:49.688Z,53.20
2019-02-28T11:50:17.426Z,52.83
2019-02-28T11:52:45.204Z,51.90
2019-02-28T11:55:13.237Z,55.77
2019-02-28T11:57:41.917Z,51.80
2019-02-28T12:00:18.774Z,54.33
2019-02-28T12:02:53.064Z,57.17
2019-02-28T12:05:16.558Z,58.17
2019-02-28T12:07:44.417Z,59.17
2019-02-28T12:10:12.246Z,54.43
2019-02-28T12:12:41.565Z,61.10
2019-02-28T12:15:10.995Z,60.13
2019-02-28T12:17:38.716Z,63.07
2019-02-28T12:20:08.134Z,58.20
2019-02-28T12:22:35.809Z,65.90
2019-02-28T12:25:04.561Z,71.87
2019-02-28T12:27:33.868Z,65.77
2019-02-28T12:30:01.619Z,67.63
2019-02-28T12:32:29.317Z,73.80
2019-02-28T12:34:57.004Z,66.27
2019-02-28T12:37:24.671Z,66.93
2019-02-28T12:39:52.346Z,64.23
2019-02-28T12:42:20.052Z,67.07
2019-02-28T12:44:49.039Z,73.83
2019-02-28T12:47:17.367Z,72.67
2019-02-28T12:49:45.054Z,71.53
2019-02-28T12:52:14.579Z,75.67
2019-02-28T12:54:42.302Z,75.07
2019-02-28T12:57:10.302Z,74.00
2019-02-28T12:59:37.999Z,69.17
2019-02-28T13:02:08.532Z,65.67
2019-02-28T13:04:36.999Z,64.83
2019-02-28T13:07:04.664Z,62.70
2019-02-28T13:09:32.381Z,58.00
2019-02-28T13:12:00.139Z,56.33
2019-02-28T13:14:27.883Z,51.37
2019-02-28T13:16:57.586Z,54.23
2019-02-28T13:19:25.135Z,50.83
2019-02-28T13:21:52.850Z,51.40
2019-02-28T13:24:20.603Z,48.17
2019-02-28T13:26:48.299Z,49.97
2019-02-28T13:29:15.954Z,49.97
2019-02-28T13:31:43.675Z,53.00
2019-02-28T13:34:11.328Z,51.20
2019-02-28T13:36:39.090Z,53.30
2019-02-28T13:39:08.044Z,50.20
2019-02-28T13:41:35.833Z,53.07
2019-02-28T13:44:03.527Z,52.73
2019-02-28T13:46:33.898Z,57.93
2019-02-28T13:49:01.126Z,57.87
2019-02-28T13:51:28.867Z,60.00
2019-02-28T13:53:56.611Z,61.93
2019-02-28T13:56:24.385Z,65.27
2019-02-28T13:58:53.636Z,70.43
2019-02-28T14:01:21.740Z,69.90
2019-02-28T14:03:49.535Z,69.07
2019-02-28T14:06:19.816Z,67.93
2019-02-28T14:08:47.754Z,68.90
2019-02-28T14:11:16.911Z,67.53
2019-02-28T14:13:44.661Z,78.67
2019-02-28T14:16:12.489Z,76.23
2019-02-28T14:18:42.486Z,65.83
2019-02-28T14:21:10.088Z,70.97
2019-02-28T14:23:38.090Z,71.23
2019-02-28T14:26:05.996Z,66.37
2019-02-28T14:28:36.595Z,64.23
2019-02-28T14:31:04.316Z,68.03
2019-02-28T14:33:32.436Z,66.73
2019-02-28T14:36:00.116Z,67.93
2019-02-28T14:38:29.637Z,66.60
2019-02-28T14:40:59.297Z,67.07
2019-02-28T14:43:26.640Z,60.87
2019-02-28T14:45:54.370Z,66.40
2019-02-28T14:48:21.902Z,61.53
2019-02-28T14:50:50.644Z,61.43
2019-02-28T14:53:19.084Z,59.63
2019-02-28T14:55:46.789Z,65.77
2019-02-28T14:58:14.514Z,62.67
2019-02-28T15:00:43.411Z,64.23
2019-02-28T15:03:11.214Z,58.07
2019-02-28T15:05:38.858Z,62.60
2019-02-28T15:08:06.483Z,59.73
2019-02-28T15:10:35.167Z,52.30
2019-02-28T15:13:04.765Z,48.23
2019-02-28T15:15:32.731Z,50.57
2019-02-28T15:18:00.384Z,49.10
2019-02-28T15:20:31.528Z,46.83
2019-02-28T15:22:59.679Z,43.97
2019-02-28T15:25:27.165Z,39.77
2019-02-28T15:27:54.782Z,41.43
2019-02-28T15:30:27.316Z,39.97
2019-02-28T15:32:55.602Z,38.40
2019-02-28T15:35:23.357Z,35.43
2019-02-28T15:37:51.221Z,34.17
2019-02-28T15:40:26.526Z,35.63
2019-02-28T15:42:54.309Z,33.43
2019-02-28T15:45:22.091Z,36.73
2019-02-28T15:47:55.420Z,34.53
2019-02-28T15:50:22.105Z,38.60
2019-02-28T15:52:49.879Z,31.20
2019-02-28T15:55:17.620Z,28.83
2019-02-28T15:57:45.266Z,28.10
2019-02-28T16:00:15.723Z,27.73
2019-02-28T16:02:43.374Z,27.53
2019-02-28T16:05:11.346Z,33.47
2019-02-28T16:07:39.030Z,28.77
2019-02-28T16:10:08.563Z,26.73
2019-02-28T16:12:38.554Z,31.00
2019-02-28T16:15:08.693Z,28.10
2019-02-28T16:17:37.404Z,31.40
2019-02-28T16:20:05.564Z,27.37
2019-02-28T16:22:33.278Z,27.57
2019-02-28T16:25:00.904Z,32.03
2019-02-28T16:27:29.588Z,25.27
2019-02-28T16:29:58.011Z,25.97
2019-02-28T16:32:25.657Z,24.93
2019-02-28T16:34:53.297Z,24.40
2019-02-28T16:37:20.990Z,23.83
2019-02-28T16:39:49.154Z,26.13
2019-02-28T16:42:17.563Z,23.97
2019-02-28T16:44:45.273Z,27.13
2019-02-28T16:47:12.941Z,25.20
2019-02-28T16:49:41.456Z,21.13
2019-02-28T16:52:10.108Z,20.23
2019-02-28T16:54:37.739Z,18.50
2019-02-28T16:57:05.466Z,20.53
2019-02-28T16:59:33.125Z,18.27
2019-02-28T17:02:00.826Z,18.97
2019-02-28T17:04:28.460Z,19.93
2019-02-28T17:06:56.092Z,16.77
2019-02-28T17:09:30.256Z,15.70
2019-02-28T17:12:04.433Z,16.53
2019-02-28T17:14:32.104Z,15.90
2019-02-28T17:17:11.900Z,17.70
2019-02-28T17:19:39.598Z,15.30
2019-02-28T17:22:08.155Z,11.20
2019-02-28T17:24:35.732Z,17.43
2019-02-28T17:27:19.834Z,15.30
2019-02-28T17:30:12.970Z,14.53
2019-02-28T17:32:40.764Z,14.70
2019-02-28T17:35:08.687Z,15.03
2019-02-28T17:37:36.367Z,15.63
2019-02-28T17:40:04.969Z,11.57
2019-02-28T17:42:32.750Z,14.67
2019-02-28T17:45:19.663Z,12.30
2019-02-28T17:48:34.019Z,15.70
2019-02-28T17:51:14.965Z,12.93
2019-02-28T17:54:17.301Z,16.97
2019-02-28T17:57:07.547Z,12.53
2019-02-28T18:00:18.689Z,13.40
2019-02-28T18:03:09.749Z,13.93
2019-02-28T18:06:26.499Z,14.47
2019-02-28T18:09:34.814Z,15.37
2019-02-28T18:12:14.350Z,14.47
2019-02-28T18:15:12.915Z,15.27
2019-02-28T18:18:21.051Z,18.70
2019-02-28T18:21:04.400Z,20.80
2019-02-28T18:24:17.058Z,16.70
2019-02-28T18:27:22.503Z,18.70
2019-02-28T18:30:23.875Z,16.43
2019-02-28T18:32:51.614Z,16.33
2019-02-28T18:35:19.231Z,14.47
2019-02-28T18:37:46.877Z,17.80
2019-02-28T18:40:14.522Z,16.73
2019-02-28T18:42:42.141Z,16.33
2019-02-28T18:45:09.909Z,15.60
2019-02-28T18:47:39.838Z,18.13
2019-02-28T18:50:07.147Z,15.63
2019-02-28T18:52:34.863Z,17.47
2019-02-28T18:55:05.962Z,18.80
2019-02-28T18:57:31.879Z,18.90
2019-02-28T18:59:59.536Z,20.70
2019-02-28T19:02:28.998Z,20.73
2019-02-28T19:04:56.719Z,14.03
2019-02-28T19:07:24.321Z,17.17
2019-02-28T19:09:51.989Z,17.50
2019-02-28T19:12:19.605Z,17.43
2019-02-28T19:14:47.290Z,13.17
2019-02-28T19:17:15.042Z,15.33
2019-02-28T19:19:42.680Z,14.30
2019-02-28T19:22:10.346Z,14.73
2019-02-28T19:24:38.006Z,12.20
2019-02-28T19:27:05.579Z,12.03
2019-02-28T19:29:33.257Z,10.20
2019-02-28T19:32:00.863Z,13.07
2019-02-28T19:34:28.483Z,13.63
2019-02-28T19:36:56.170Z,14.03
2019-02-28T19:39:23.854Z,11.80
2019-02-28T19:41:51.499Z,8.80
2019-02-28T19:44:19.238Z,10.73
2019-02-28T19:46:46.870Z,9.77
2019-02-28T19:49:14.552Z,10.97
2019-02-28T19:51:42.233Z,9.53
2019-02-28T19:54:09.929Z,12.00
2019-02-28T19:56:37.563Z,12.57
2019-02-28T19:59:05.162Z,14.00
2019-02-28T20:01:32.782Z,13.87
2019-02-28T20:04:00.398Z,12.87
2019-02-28T20:06:29.204Z,11.90
2019-02-28T20:08:56.829Z,17.93
2019-02-28T20:11:24.795Z,18.37
2019-02-28T20:13:52.378Z,15.33
2019-02-28T20:16:20.025Z,16.90
2019-02-28T20:18:47.631Z,15.70
2019-02-28T20:21:15.274Z,14.37
2019-02-28T20:23:42.905Z,18.93
2019-02-28T20:26:10.616Z,17.70
2019-02-28T20:28:39.141Z,18.93
2019-02-28T20:31:06.851Z,19.77
2019-02-28T20:33:34.455Z,16.47
2019-02-28T20:36:02.166Z,21.30
2019-02-28T20:38:29.886Z,18.77
2019-02-28T20:40:57.505Z,20.07
2019-02-28T20:43:25.136Z,19.67
2019-02-28T20:45:52.859Z,15.10
2019-02-28T20:48:20.518Z,20.23
2019-02-28T20:50:48.257Z,22.00
2019-02-28T20:53:16.344Z,21.07
2019-02-28T20:55:44.054Z,20.87
2019-02-28T20:58:11.651Z,19.10
2019-02-28T21:00:39.307Z,20.53
2019-02-28T21:03:06.917Z,20.23
2019-02-28T21:05:34.556Z,17.93
2019-02-28T21:08:02.111Z,18.93
2019-02-28T21:10:29.907Z,17.93
2019-02-28T21:12:57.514Z,16.13
2019-02-28T21:15:25.179Z,17.67
2019-02-28T21:17:52.795Z,14.80
2019-02-28T21:20:20.482Z,15.83
2019-02-28T21:22:48.125Z,19.57
2019-02-28T21:25:15.828Z,17.33
2019-02-28T21:27:43.483Z,17.13
2019-02-28T21:30:14.398Z,20.90
2019-02-28T21:32:42.029Z,18.23
2019-02-28T21:35:10.125Z,20.37
2019-02-28T21:37:37.686Z,20.53
2019-02-28T21:40:05.618Z,19.70
2019-02-28T21:42:33.214Z,20.93
2019-02-28T21:45:00.856Z,25.47
2019-02-28T21:47:28.419Z,21.37
2019-02-28T21:49:56.029Z,22.43
2019-02-28T21:52:23.688Z,18.83
2019-02-28T21:54:51.295Z,21.93
2019-02-28T21:57:18.961Z,22.73
2019-02-28T21:59:46.575Z,20.33
2019-02-28T22:02:14.227Z,19.63
2019-02-28T22:04:41.914Z,20.07
2019-02-28T22:07:09.607Z,28.20
2019-02-28T22:09:37.254Z,28.70
2019-02-28T22:12:04.973Z,23.03
2019-02-28T22:14:32.613Z,24.60
2019-02-28T22:17:00.245Z,20.33
2019-02-28T22:19:27.878Z,22.87
2019-02-28T22:21:55.565Z,23.40
2019-02-28T22:24:23.185Z,20.27
2019-02-28T22:26:50.878Z,22.23
2019-02-28T22:29:18.494Z,23.77
2019-02-28T22:32:11.419Z,24.53
2019-02-28T22:34:52.844Z,24.37
2019-02-28T22:37:20.596Z,23.03
2019-02-28T22:39:48.218Z,24.37
2019-02-28T22:42:22.012Z,22.53
2019-02-28T22:44:45.299Z,22.60
2019-02-28T22:47:13.028Z,24.90
2019-02-28T22:49:40.639Z,27.13
2019-02-28T22:52:08.289Z,24.50
2019-02-28T22:54:35.900Z,28.00
2019-02-28T22:57:03.547Z,27.67
2019-02-28T22:59:31.243Z,22.03
2019-02-28T23:01:58.986Z,24.70
2019-02-28T23:04:26.577Z,22.17
2019-02-28T23:06:54.263Z,27.97
2019-02-28T23:09:22.039Z,28.63
2019-02-28T23:11:49.719Z,25.07
2019-02-28T23:14:17.374Z,27.20
2019-02-28T23:16:45.037Z,24.27
2019-02-28T23:19:12.697Z,22.87
2019-02-28T23:21:40.383Z,20.97
2019-02-28T23:24:08.061Z,28.00
2019-02-28T23:27:11.242Z,26.20
2019-02-28T23:29:41.919Z,20.73
2019-02-28T23:32:36.737Z,19.87
2019-02-28T23:35:07.048Z,19.53
2019-02-28T23:37:34.702Z,20.30
2019-02-28T23:40:02.343Z,22.00
2019-02-28T23:42:29.994Z,18.47
2019-02-28T23:44:57.695Z,19.80
2019-02-28T23:47:25.410Z,15.47
2019-02-28T23:49:53.022Z,17.80
2019-02-28T23:52:20.713Z,16.60
2019-02-28T23:54:48.301Z,17.77
2019-02-28T23:57:15.954Z,18.23
2019-02-28T23:59:43.557Z,16.10
